Time;durP1;ratioP1;P1;durP2;ratioP2;P2;SDS_P1;SDS_P2;PMS_P1;PMS_P2;Temp;Humidity;BMP_temperature;BMP_pressure;BME280_temperature;BME280_humidity;BME280_pressure;Samples;Min_cycle;Max_cycle;Signal;HPM_P1;HPM_P2
2023/02/01 00:01:39;;;;;;;5.90;4.63;;;4.50;1.00;;;;;;5115445;28;20171;-38
2023/02/01 00:04:05;;;;;;;5.17;4.17;;;4.50;1.00;;;;;;5116109;28;20175;-36
2023/02/01 00:06:31;;;;;;;3.90;3.50;;;4.50;10.70;;;;;;5114422;28;20396;-37
2023/02/01 00:08:56;;;;;;;5.87;5.10;;;4.50;9.60;;;;;;5114112;28;20442;-37
2023/02/01 00:11:23;;;;;;;6.20;5.03;;;4.50;14.00;;;;;;5115662;28;20229;-37
2023/02/01 00:13:49;;;;;;;5.50;4.60;;;4.50;1.00;;;;;;5113396;28;20457;-37
2023/02/01 00:16:17;;;;;;;6.33;4.70;;;4.50;12.20;;;;;;5114117;28;20534;-38
2023/02/01 00:18:44;;;;;;;5.77;4.70;;;4.50;22.10;;;;;;5114592;28;20428;-37
2023/02/01 00:21:17;;;;;;;4.57;4.07;;;4.50;30.30;;;;;;5114617;28;20676;-39
2023/02/01 00:23:43;;;;;;;5.83;4.63;;;4.50;24.40;;;;;;5068367;28;1326271;-38
2023/02/01 00:26:26;;;;;;;6.37;5.03;;;4.50;1.00;;;;;;5114103;28;20256;-37
2023/02/01 00:28:53;;;;;;;5.10;4.60;;;4.50;1.00;;;;;;5115263;28;20417;-37
2023/02/01 00:31:18;;;;;;;5.97;4.73;;;4.40;7.10;;;;;;5114998;28;20852;-37
2023/02/01 00:33:47;;;;;;;6.53;4.30;;;4.40;1.00;;;;;;5115478;28;20417;-37
2023/02/01 00:36:13;;;;;;;5.17;4.67;;;4.40;17.90;;;;;;5120133;28;20246;-37
2023/02/01 00:38:39;;;;;;;5.40;4.40;;;4.40;28.40;;;;;;5120858;28;20737;-37
2023/02/01 00:41:16;;;;;;;4.97;4.47;;;4.40;48.90;;;;;;5119937;28;20435;-37
2023/02/01 00:43:42;;;;;;;6.20;4.60;;;4.40;69.50;;;;;;5121478;28;20714;-37
2023/02/01 00:46:08;;;;;;;5.97;4.10;;;4.40;94.80;;;;;;5121856;28;20410;-37
2023/02/01 00:48:34;;;;;;;5.60;4.53;;;4.40;89.90;;;;;;5121691;28;20436;-37
2023/02/01 00:51:05;;;;;;;4.90;3.80;;;4.40;88.00;;;;;;5119581;28;20826;-37
2023/02/01 00:53:31;;;;;;;5.00;4.47;;;4.40;87.60;;;;;;5119448;28;20175;-37
2023/02/01 00:55:57;;;;;;;4.10;3.70;;;4.40;24.80;;;;;;5119683;28;20420;-38
2023/02/01 00:58:26;;;;;;;4.90;3.60;;;4.40;68.10;;;;;;5119666;28;20526;-37
2023/02/01 01:01:06;;;;;;;4.73;3.80;;;4.40;48.20;;;;;;5119845;28;20746;-37
2023/02/01 01:03:36;;;;;;;4.57;3.90;;;4.40;24.30;;;;;;5119285;28;20415;-38
2023/02/01 01:06:05;;;;;;;4.40;3.47;;;4.40;24.30;;;;;;5120948;28;20702;-36
2023/02/01 01:08:31;;;;;;;4.90;4.00;;;4.40;24.60;;;;;;5120645;28;20435;-37
2023/02/01 01:10:56;;;;;;;3.97;3.57;;;4.40;16.10;;;;;;5119725;28;20902;-37
2023/02/01 01:13:22;;;;;;;3.77;3.37;;;4.40;1.00;;;;;;5120420;28;20188;-37
2023/02/01 01:15:48;;;;;;;5.50;4.00;;;4.30;14.20;;;;;;5119638;28;20434;-37
2023/02/01 01:18:14;;;;;;;5.03;4.10;;;4.30;50.30;;;;;;5119967;28;20461;-38
2023/02/01 01:20:40;;;;;;;3.90;3.43;;;4.30;80.70;;;;;;5119576;28;20172;-38
2023/02/01 01:23:08;;;;;;;4.60;4.20;;;4.30;99.90;;;;;;5119974;28;20485;-37
2023/02/01 01:25:38;;;;;;;5.50;3.67;;;4.30;93.30;;;;;;5119746;28;20429;-37
2023/02/01 01:28:05;;;;;;;5.33;3.50;;;4.30;95.60;;;;;;5118327;28;20796;-37
2023/02/01 01:30:31;;;;;;;4.10;3.70;;;4.30;99.90;;;;;;5118146;27;20874;-37
2023/02/01 01:32:56;;;;;;;4.93;4.43;;;4.30;99.90;;;;;;5117353;28;20440;-37
2023/02/01 01:35:22;;;;;;;4.47;4.07;;;4.30;99.90;;;;;;5113811;28;20444;-37
2023/02/01 01:37:48;;;;;;;4.23;3.83;;;4.30;99.90;;;;;;5101413;28;20208;-37
2023/02/01 01:40:13;;;;;;;4.50;4.10;;;4.30;99.90;;;;;;5098739;28;20267;-38
2023/02/01 01:42:41;;;;;;;4.40;4.00;;;4.30;99.90;;;;;;5099147;28;20404;-37
2023/02/01 01:45:12;;;;;;;4.90;4.17;;;4.30;99.90;;;;;;5097508;28;20511;-37
2023/02/01 01:47:41;;;;;;;5.40;4.40;;;4.30;99.90;;;;;;5097475;28;20422;-37
2023/02/01 01:50:11;;;;;;;4.90;4.50;;;4.30;99.90;;;;;;5098516;28;20438;-36
2023/02/01 01:52:37;;;;;;;5.10;4.50;;;4.30;99.90;;;;;;5112187;28;20434;-37
2023/02/01 01:55:04;;;;;;;5.10;4.60;;;4.30;99.90;;;;;;5098331;28;20472;-37
2023/02/01 01:57:34;;;;;;;5.43;4.93;;;4.30;99.90;;;;;;5118168;28;20927;-37
2023/02/01 02:00:05;;;;;;;5.20;4.60;;;4.30;99.90;;;;;;5117668;28;20667;-37
2023/02/01 02:02:31;;;;;;;5.00;4.50;;;4.30;99.90;;;;;;5118408;28;20451;-37
2023/02/01 02:04:56;;;;;;;5.57;3.90;;;4.30;99.90;;;;;;5117568;28;20406;-37
2023/02/01 02:07:30;;;;;;;5.77;5.27;;;4.30;99.90;;;;;;5117702;28;20209;-37
2023/02/01 02:09:56;;;;;;;4.23;3.83;;;4.30;99.90;;;;;;5118700;28;20477;-37
2023/02/01 02:12:22;;;;;;;5.70;4.30;;;4.30;99.90;;;;;;5118063;28;20436;-37
2023/02/01 02:14:48;;;;;;;6.10;4.87;;;4.30;99.90;;;;;;5118258;28;20406;-37
2023/02/01 02:17:48;;;;;;;6.03;4.77;;;4.30;99.90;;;;;;5118806;28;20214;-38
2023/02/01 02:20:31;;;;;;;4.53;4.13;;;4.30;99.90;;;;;;5119316;28;20534;-37
2023/02/01 02:23:19;;;;;;;4.17;3.77;;;4.30;99.90;;;;;;5119403;28;20851;-37
2023/02/01 02:26:02;;;;;;;5.97;4.57;;;4.30;99.90;;;;;;5119615;28;20437;-37
2023/02/01 02:29:07;;;;;;;3.90;3.50;;;4.30;99.90;;;;;;5118147;28;20828;-37
2023/02/01 02:32:10;;;;;;;5.77;3.73;;;4.40;99.90;;;;;;5117596;28;20421;-37
2023/02/01 02:35:27;;;;;;;4.43;4.03;;;4.40;99.90;;;;;;5119783;28;20402;-37
2023/02/01 02:38:08;;;;;;;5.23;4.03;;;4.40;99.90;;;;;;5104926;28;20473;-37
2023/02/01 02:40:49;;;;;;;5.30;4.33;;;4.40;99.90;;;;;;5118244;28;20727;-37
2023/02/01 02:49:21;;;;;;;4.60;3.73;;;4.40;99.90;;;;;;5118700;28;20405;-37
2023/02/01 02:54:46;;;;;;;4.20;3.80;;;4.40;99.90;;;;;;5118874;28;20459;-37
2023/02/01 03:05:45;;;;;;;3.93;3.63;;;4.40;99.90;;;;;;5118041;28;20433;-37
2023/02/01 03:08:15;;;;;;;4.40;4.00;;;4.40;99.90;;;;;;5118748;28;20445;-37
2023/02/01 03:11:05;;;;;;;3.60;3.23;;;4.50;99.90;;;;;;5118644;28;20490;-37
2023/02/01 03:13:42;;;;;;;5.00;4.50;;;4.50;99.90;;;;;;5118767;28;20409;-37
2023/02/01 03:16:17;;;;;;;4.57;3.93;;;4.50;99.90;;;;;;5118222;28;20539;-37
2023/02/01 03:18:46;;;;;;;4.97;3.67;;;4.50;99.90;;;;;;5118302;28;20448;-37
2023/02/01 03:21:16;;;;;;;4.47;3.90;;;4.50;99.90;;;;;;5118201;28;20501;-37
2023/02/01 03:23:42;;;;;;;5.73;4.77;;;4.50;99.90;;;;;;5117740;28;20458;-37
2023/02/01 03:26:12;;;;;;;5.30;4.50;;;4.50;99.90;;;;;;5117214;28;20421;-37
2023/02/01 03:28:43;;;;;;;4.90;4.40;;;4.50;99.90;;;;;;5117038;28;20828;-38
2023/02/01 03:31:08;;;;;;;5.60;4.97;;;4.50;99.90;;;;;;5116147;28;20417;-37
2023/02/01 03:33:34;;;;;;;4.97;4.47;;;4.50;99.90;;;;;;5117837;28;20819;-37
2023/02/01 03:36:30;;;;;;;4.23;3.70;;;4.40;99.90;;;;;;5117226;28;20580;-37
2023/02/01 03:39:03;;;;;;;5.30;4.10;;;4.40;99.90;;;;;;5116552;28;20199;-36
2023/02/01 03:41:33;;;;;;;4.37;3.90;;;4.40;99.90;;;;;;5118404;28;20504;-37
2023/02/01 03:44:24;;;;;;;4.43;4.03;;;4.50;99.90;;;;;;5118178;28;20683;-36
2023/02/01 03:46:57;;;;;;;4.70;4.30;;;4.50;99.90;;;;;;5117208;28;20409;-37
2023/02/01 03:49:42;;;;;;;4.40;3.60;;;4.40;99.90;;;;;;5116763;28;20722;-37
2023/02/01 03:52:14;;;;;;;3.83;3.37;;;4.50;99.90;;;;;;5118066;28;20691;-38
2023/02/01 03:54:40;;;;;;;5.00;4.27;;;4.50;99.90;;;;;;5116797;28;20504;-37
2023/02/01 03:57:11;;;;;;;4.70;4.20;;;4.40;99.90;;;;;;5116087;28;20477;-37
2023/02/01 03:59:43;;;;;;;3.93;3.53;;;4.40;99.90;;;;;;5116621;28;20448;-37
2023/02/01 04:02:09;;;;;;;4.97;4.33;;;4.50;99.90;;;;;;5117813;28;20413;-37
2023/02/01 04:04:35;;;;;;;5.37;4.23;;;4.40;99.90;;;;;;5117005;28;20425;-37
2023/02/01 04:07:01;;;;;;;6.43;4.63;;;4.40;99.90;;;;;;5117757;28;20172;-37
2023/02/01 04:09:26;;;;;;;5.13;4.53;;;4.40;99.90;;;;;;5117815;28;20421;-37
2023/02/01 04:11:52;;;;;;;7.33;5.00;;;4.40;99.90;;;;;;5117841;28;20186;-37
2023/02/01 04:14:18;;;;;;;4.83;4.10;;;4.40;99.90;;;;;;5117529;28;20271;-37
2023/02/01 04:16:43;;;;;;;5.27;4.77;;;4.40;99.90;;;;;;5117347;28;20485;-37
2023/02/01 04:19:09;;;;;;;4.80;4.40;;;4.40;99.90;;;;;;5116796;28;20569;-37
2023/02/01 04:21:34;;;;;;;4.53;4.13;;;4.40;99.90;;;;;;5117764;28;20624;-37
2023/02/01 04:24:00;;;;;;;4.37;3.97;;;4.40;99.90;;;;;;5117414;28;20231;-37
2023/02/01 04:26:26;;;;;;;4.47;3.93;;;4.40;99.90;;;;;;5117498;28;20184;-37
2023/02/01 04:28:52;;;;;;;7.77;4.10;;;4.40;99.90;;;;;;5117323;28;20534;-37
2023/02/01 04:31:25;;;;;;;4.27;3.87;;;4.40;99.90;;;;;;5116961;28;20199;-37
2023/02/01 04:33:54;;;;;;;4.10;3.70;;;4.40;99.90;;;;;;5117189;28;20447;-36
2023/02/01 04:36:21;;;;;;;5.60;4.40;;;4.40;99.90;;;;;;5116545;28;20430;-38
2023/02/01 04:38:50;;;;;;;4.83;4.33;;;4.40;99.90;;;;;;5115815;28;20440;-37
2023/02/01 04:41:19;;;;;;;4.70;4.03;;;4.40;99.90;;;;;;5115687;28;20738;-37
2023/02/01 04:43:48;;;;;;;4.03;3.60;;;4.40;99.90;;;;;;5114479;28;20827;-37
2023/02/01 04:46:14;;;;;;;4.27;3.87;;;4.40;99.90;;;;;;5114063;28;20832;-37
2023/02/01 04:48:39;;;;;;;3.57;3.27;;;4.40;99.90;;;;;;5113759;28;20462;-37
2023/02/01 04:51:05;;;;;;;3.93;3.53;;;4.40;99.90;;;;;;5113938;28;20570;-38
2023/02/01 04:53:31;;;;;;;3.87;3.47;;;4.50;99.90;;;;;;5115448;28;20474;-37
2023/02/01 04:55:56;;;;;;;4.03;3.73;;;4.40;99.90;;;;;;5115611;28;20199;-37
2023/02/01 04:58:22;;;;;;;4.00;3.60;;;4.50;99.90;;;;;;5115622;28;20215;-39
2023/02/01 05:00:48;;;;;;;4.33;3.93;;;4.50;99.90;;;;;;5116437;28;20183;-37
2023/02/01 05:03:14;;;;;;;3.70;3.40;;;4.50;99.90;;;;;;5116408;28;20675;-37
2023/02/01 05:05:39;;;;;;;4.03;3.33;;;4.50;99.90;;;;;;5117243;28;20268;-37
2023/02/01 05:08:05;;;;;;;5.33;3.90;;;4.50;99.90;;;;;;5117128;28;20441;-37
2023/02/01 05:10:31;;;;;;;4.23;3.47;;;4.50;99.90;;;;;;5115022;28;20298;-36
2023/02/01 05:15:41;;;;;;;4.40;3.67;;;4.50;99.90;;;;;;5115517;28;20526;-38
2023/02/01 05:18:07;;;;;;;4.13;3.43;;;4.50;99.90;;;;;;5114835;28;20461;-37
2023/02/01 05:20:32;;;;;;;3.73;2.90;;;4.50;99.90;;;;;;5117030;28;20444;-37
2023/02/01 05:22:58;;;;;;;3.43;3.13;;;4.50;99.90;;;;;;5120200;28;20215;-38
2023/02/01 05:25:24;;;;;;;4.13;2.97;;;4.50;99.90;;;;;;5118709;28;20307;-37
2023/02/01 05:27:49;;;;;;;3.53;3.10;;;4.50;99.90;;;;;;5120134;28;20589;-37
2023/02/01 05:30:15;;;;;;;3.10;2.80;;;4.50;99.90;;;;;;5117822;28;20191;-37
2023/02/01 05:32:41;;;;;;;4.07;3.20;;;4.50;8.20;;;;;;5117126;28;20550;-37
2023/02/01 05:35:07;;;;;;;3.27;2.83;;;4.50;1.00;;;;;;5117259;28;20513;-37
2023/02/01 05:37:32;;;;;;;3.63;2.97;;;4.50;3.60;;;;;;5117240;28;20223;-37
2023/02/01 05:39:58;;;;;;;3.70;2.93;;;4.50;1.00;;;;;;5117973;28;20691;-37
2023/02/01 05:42:24;;;;;;;3.17;2.87;;;4.50;1.00;;;;;;5117801;28;20172;-37
2023/02/01 05:44:49;;;;;;;2.83;2.50;;;4.50;1.00;;;;;;5118350;28;20210;-37
2023/02/01 05:47:15;;;;;;;3.10;2.70;;;4.50;1.00;;;;;;5115213;28;20171;-37
2023/02/01 05:49:41;;;;;;;3.13;2.83;;;4.50;1.00;;;;;;5116835;28;20271;-37
2023/02/01 05:52:06;;;;;;;2.60;2.40;;;4.50;1.00;;;;;;5115999;28;20190;-37
2023/02/01 05:54:32;;;;;;;5.77;3.37;;;4.50;1.00;;;;;;5113862;28;20536;-37
2023/02/01 05:56:57;;;;;;;3.73;3.07;;;4.50;1.00;;;;;;5115318;28;20619;-37
2023/02/01 05:59:23;;;;;;;3.20;2.83;;;4.50;1.00;;;;;;5115634;28;20215;-37
2023/02/01 06:01:49;;;;;;;3.30;2.90;;;4.50;2.70;;;;;;5115654;28;20256;-37
2023/02/01 06:04:14;;;;;;;2.87;2.67;;;4.50;23.00;;;;;;5113516;28;20207;-36
2023/02/01 06:06:40;;;;;;;4.10;3.20;;;4.50;38.60;;;;;;5111641;28;20175;-36
2023/02/01 06:09:08;;;;;;;3.50;3.20;;;4.60;34.20;;;;;;5115865;28;20179;-37
2023/02/01 06:11:34;;;;;;;3.80;3.00;;;4.60;35.70;;;;;;5103895;28;20339;-37
2023/02/01 06:14:01;;;;;;;4.37;2.90;;;4.60;40.30;;;;;;5094175;28;20785;-37
2023/02/01 06:16:27;;;;;;;3.03;2.47;;;4.60;46.10;;;;;;5095001;28;20212;-36
2023/02/01 06:18:56;;;;;;;5.97;3.07;;;4.70;1.00;;;;;;5094688;28;20449;-38
2023/02/01 06:21:25;;;;;;;2.60;2.37;;;4.70;3.60;;;;;;5093183;28;20264;-38
2023/02/01 06:23:52;;;;;;;4.30;3.63;;;4.70;1.00;;;;;;5093178;28;20494;-37
2023/02/01 06:26:17;;;;;;;4.10;2.90;;;4.70;1.00;;;;;;5091102;28;20589;-37
2023/02/01 06:28:43;;;;;;;3.30;3.00;;;4.70;1.00;;;;;;5094564;28;20833;-37
2023/02/01 06:31:09;;;;;;;4.20;3.10;;;4.70;1.00;;;;;;5092147;28;20536;-38
2023/02/01 06:33:36;;;;;;;3.63;2.90;;;4.70;1.00;;;;;;5094001;28;20406;-39
2023/02/01 06:36:04;;;;;;;4.70;3.00;;;4.70;1.00;;;;;;5097798;28;20410;-37
2023/02/01 06:38:30;;;;;;;3.70;3.40;;;4.70;1.00;;;;;;5095150;28;20465;-37
2023/02/01 06:40:57;;;;;;;3.60;3.30;;;4.70;1.00;;;;;;5095646;28;20486;-36
2023/02/01 06:43:26;;;;;;;4.53;2.97;;;4.60;1.00;;;;;;5098782;28;20317;-37
2023/02/01 06:45:52;;;;;;;3.20;2.63;;;4.60;1.00;;;;;;5098048;28;20846;-39
2023/02/01 06:48:18;;;;;;;3.53;2.80;;;4.60;1.00;;;;;;5098650;28;20714;-37
2023/02/01 06:50:44;;;;;;;5.07;2.80;;;4.60;15.90;;;;;;5096988;28;20476;-37
2023/02/01 06:53:10;;;;;;;4.53;3.43;;;4.60;38.70;;;;;;5096411;28;20943;-36
2023/02/01 06:55:36;;;;;;;3.27;2.80;;;4.60;12.90;;;;;;5099158;28;20189;-37
2023/02/01 06:58:02;;;;;;;3.90;3.00;;;4.60;1.00;;;;;;5099850;28;20531;-36
2023/02/01 07:00:28;;;;;;;2.87;2.60;;;4.70;1.00;;;;;;5100460;28;20180;-37
2023/02/01 07:02:54;;;;;;;2.83;2.43;;;4.70;1.00;;;;;;5099997;28;20728;-37
2023/02/01 07:05:20;;;;;;;7.03;3.33;;;4.70;1.00;;;;;;5101081;28;20465;-36
2023/02/01 07:07:46;;;;;;;5.90;2.90;;;4.70;1.00;;;;;;5100196;28;20418;-36
2023/02/01 07:10:12;;;;;;;3.57;3.20;;;4.70;1.00;;;;;;5100734;28;20547;-37
2023/02/01 07:12:37;;;;;;;3.07;2.77;;;4.70;1.00;;;;;;5100576;28;20217;-37
2023/02/01 07:15:03;;;;;;;4.10;2.93;;;4.70;1.00;;;;;;5101130;28;20411;-37
2023/02/01 07:17:29;;;;;;;5.43;3.13;;;4.80;1.00;;;;;;5099022;28;20232;-37
2023/02/01 07:19:56;;;;;;;4.33;3.47;;;4.80;1.00;;;;;;5099593;28;20430;-37
2023/02/01 07:22:22;;;;;;;4.30;3.20;;;4.80;1.00;;;;;;5097020;28;20179;-36
2023/02/01 07:24:48;;;;;;;3.77;2.20;;;4.80;1.00;;;;;;5094439;28;20481;-35
2023/02/01 07:27:13;;;;;;;4.03;2.97;;;4.80;1.00;;;;;;5094809;28;20455;-36
2023/02/01 07:29:39;;;;;;;3.00;2.70;;;4.90;1.00;;;;;;5094568;28;20172;-35
2023/02/01 07:32:05;;;;;;;3.20;2.90;;;4.90;1.00;;;;;;5095384;28;20445;-36
2023/02/01 07:34:31;;;;;;;2.70;2.50;;;4.90;99.90;;;;;;5094117;28;20192;-37
2023/02/01 07:36:56;;;;;;;4.60;2.77;;;4.90;99.90;;;;;;5092600;28;20698;-35
2023/02/01 07:39:22;;;;;;;2.77;2.30;;;4.90;99.90;;;;;;5092356;28;20271;-36
2023/02/01 07:41:48;;;;;;;3.70;2.73;;;5.00;99.90;;;;;;5093835;28;20836;-35
2023/02/01 07:44:13;;;;;;;3.23;2.83;;;5.00;85.40;;;;;;5094755;28;20415;-37
2023/02/01 07:46:39;;;;;;;3.60;2.73;;;5.00;67.00;;;;;;5092620;28;20288;-37
2023/02/01 07:49:05;;;;;;;3.23;2.93;;;5.00;36.50;;;;;;5093269;28;20608;-37
2023/02/01 07:51:31;;;;;;;3.90;3.17;;;5.10;26.30;;;;;;5094472;28;20422;-36
2023/02/01 07:53:57;;;;;;;6.70;3.23;;;5.10;29.70;;;;;;5092469;28;20599;-36
2023/02/01 07:56:23;;;;;;;3.33;3.03;;;5.10;10.50;;;;;;5091498;28;20223;-36
2023/02/01 07:58:54;;;;;;;3.30;2.93;;;5.20;1.00;;;;;;5090613;28;20598;-37
2023/02/01 08:01:25;;;;;;;3.17;2.70;;;5.20;1.00;;;;;;5092093;28;20701;-37
2023/02/01 08:03:53;;;;;;;8.63;2.80;;;5.40;99.90;;;;;;5091121;28;20780;-38
2023/02/01 08:06:19;;;;;;;4.70;3.80;;;7.40;1.00;;;;;;5093371;28;20426;-37
2023/02/01 08:08:46;;;;;;;6.60;4.07;;;7.90;1.00;;;;;;5092011;28;20415;-37
2023/02/01 08:11:13;;;;;;;5.93;3.80;;;7.80;1.00;;;;;;5092789;28;20418;-37
2023/02/01 08:13:39;;;;;;;4.10;3.20;;;7.50;1.00;;;;;;5093466;28;20419;-38
2023/02/01 08:16:07;;;;;;;3.43;3.00;;;7.20;1.00;;;;;;5092108;28;20403;-37
2023/02/01 08:18:33;;;;;;;4.10;3.60;;;7.00;99.90;;;;;;5092326;28;20204;-37
2023/02/01 08:21:07;;;;;;;2.87;2.60;;;6.70;1.00;;;;;;5090621;28;20403;-37
2023/02/01 08:23:34;;;;;;;3.10;2.60;;;6.50;50.20;;;;;;5090489;28;20848;-37
2023/02/01 08:26:18;;;;;;;4.90;3.77;;;6.40;99.90;;;;;;5089269;28;20552;-37
2023/02/01 08:28:47;;;;;;;4.47;4.07;;;6.30;99.90;;;;;;5092109;28;20880;-37
2023/02/01 08:31:15;;;;;;;4.60;2.80;;;6.30;1.00;;;;;;5091888;28;20415;-37
2023/02/01 08:33:41;;;;;;;4.00;2.77;;;6.20;1.00;;;;;;5091505;28;20411;-37
2023/02/01 08:36:10;;;;;;;3.50;2.50;;;6.20;99.90;;;;;;5091607;28;20704;-36
2023/02/01 08:38:37;;;;;;;4.07;3.37;;;6.20;99.90;;;;;;5092790;28;20458;-37
2023/02/01 08:41:06;;;;;;;3.40;2.80;;;6.20;99.90;;;;;;5092340;28;20410;-37
2023/02/01 08:43:31;;;;;;;6.70;2.70;;;6.20;99.90;;;;;;5090356;28;20422;-36
2023/02/01 08:45:57;;;;;;;4.27;2.70;;;6.30;52.20;;;;;;5089990;28;20411;-37
2023/02/01 08:48:22;;;;;;;3.53;3.00;;;6.40;1.00;;;;;;5091500;28;20671;-38
2023/02/01 08:50:48;;;;;;;5.10;3.30;;;6.40;1.00;;;;;;5090989;28;20177;-37
2023/02/01 08:53:14;;;;;;;3.43;2.63;;;6.40;99.90;;;;;;5092266;28;20180;-37
2023/02/01 08:55:39;;;;;;;3.63;3.00;;;6.40;99.90;;;;;;5092930;28;20247;-37
2023/02/01 08:58:05;;;;;;;4.20;3.23;;;6.40;99.90;;;;;;5095744;28;20204;-37
2023/02/01 09:00:31;;;;;;;3.60;3.30;;;6.40;99.90;;;;;;5095777;28;20179;-36
2023/02/01 09:02:56;;;;;;;8.00;3.27;;;6.40;58.70;;;;;;5097558;28;20190;-37
2023/02/01 09:05:26;;;;;;;3.40;3.07;;;6.40;1.00;;;;;;5095793;28;20468;-37
2023/02/01 09:07:52;;;;;;;5.33;3.63;;;6.30;1.00;;;;;;5097283;28;20184;-39
2023/02/01 09:10:18;;;;;;;3.23;2.63;;;6.30;1.00;;;;;;5097261;28;20421;-37
2023/02/01 09:12:43;;;;;;;5.90;2.97;;;6.30;1.00;;;;;;5096533;28;20429;-37
2023/02/01 09:15:09;;;;;;;3.90;2.57;;;6.20;1.00;;;;;;5096146;28;20173;-38
2023/02/01 09:17:35;;;;;;;4.50;3.03;;;6.20;1.00;;;;;;5094752;28;20311;-37
2023/02/01 09:20:01;;;;;;;5.40;3.00;;;6.20;1.00;;;;;;5097503;28;20181;-36
2023/02/01 09:22:26;;;;;;;4.40;3.43;;;6.10;1.00;;;;;;5096380;28;20542;-37
2023/02/01 09:24:53;;;;;;;4.40;3.10;;;6.10;1.00;;;;;;5094373;28;20323;-37
2023/02/01 09:27:18;;;;;;;4.77;3.10;;;6.10;1.00;;;;;;5094764;28;20181;-37
2023/02/01 09:29:44;;;;;;;4.23;3.00;;;6.10;1.00;;;;;;5095053;28;20503;-37
2023/02/01 09:32:10;;;;;;;4.30;3.20;;;6.10;1.00;;;;;;5095725;28;20565;-37
2023/02/01 09:34:36;;;;;;;5.53;3.30;;;6.10;1.00;;;;;;5096059;28;20442;-37
2023/02/01 09:37:01;;;;;;;6.70;3.23;;;6.10;1.00;;;;;;5093850;28;20207;-37
2023/02/01 09:39:29;;;;;;;5.47;3.07;;;6.10;1.00;;;;;;5104195;28;20530;-37
2023/02/01 09:42:14;;;;;;;5.40;3.43;;;6.10;1.00;;;;;;5076105;28;20230;-37
2023/02/01 09:45:06;;;;;;;9.03;3.80;;;6.20;99.90;;;;;;5074941;28;20419;-37
2023/02/01 09:47:32;;;;;;;4.40;3.00;;;6.30;53.90;;;;;;5059046;28;20469;-38
2023/02/01 09:50:16;;;;;;;7.20;3.30;;;6.40;1.00;;;;;;5075923;28;20415;-37
2023/02/01 09:52:54;;;;;;;6.50;3.80;;;6.50;1.00;;;;;;5076003;28;20840;-37
2023/02/01 09:55:37;;;;;;;7.30;3.50;;;6.60;99.90;;;;;;5076976;28;20520;-38
2023/02/01 09:58:22;;;;;;;6.17;3.30;;;6.60;99.90;;;;;;5077734;28;20520;-38
2023/02/01 10:00:59;;;;;;;5.13;3.23;;;6.70;1.00;;;;;;5077802;28;20407;-50
2023/02/01 10:03:28;;;;;;;7.67;3.70;;;6.80;1.00;;;;;;5077355;28;20812;-36
2023/02/01 10:06:32;;;;;;;6.03;3.87;;;6.80;1.00;;;;;;5076958;28;20709;-37
2023/02/01 10:09:21;;;;;;;6.53;3.10;;;6.90;1.00;;;;;;5077055;28;20415;-37
2023/02/01 10:11:56;;;;;;;4.93;2.50;;;7.00;99.90;;;;;;5075694;28;20758;-37
2023/02/01 10:14:28;;;;;;;6.33;3.60;;;7.10;99.90;;;;;;5076122;28;20418;-37
2023/02/01 10:17:08;;;;;;;8.33;2.80;;;7.20;99.90;;;;;;5074769;28;20568;-38
2023/02/01 10:19:58;;;;;;;7.80;3.57;;;7.40;99.90;;;;;;5091092;28;20411;-37
2023/02/01 10:22:44;;;;;;;7.83;2.80;;;7.50;1.00;;;;;;5074863;28;20575;-37
2023/02/01 10:25:32;;;;;;;4.03;2.90;;;7.60;1.00;;;;;;5073308;28;20463;-38
2023/02/01 10:28:00;;;;;;;8.77;3.57;;;7.60;1.00;;;;;;5073580;28;20439;-37
2023/02/01 10:30:31;;;;;;;8.20;2.73;;;7.60;99.90;;;;;;5074023;28;20423;-37
2023/02/01 10:33:26;;;;;;;9.70;3.10;;;7.60;99.90;;;;;;5074192;28;20423;-37
2023/02/01 10:36:03;;;;;;;7.57;2.60;;;7.60;99.90;;;;;;5068431;28;20424;-37
2023/02/01 10:38:30;;;;;;;8.50;3.20;;;7.60;99.90;;;;;;5074412;28;20463;-37
2023/02/01 10:41:02;;;;;;;8.30;3.40;;;7.60;99.90;;;;;;5073251;28;20404;-37
2023/02/01 10:43:27;;;;;;;7.20;3.37;;;7.50;99.90;;;;;;5072560;28;20879;-37
2023/02/01 10:45:53;;;;;;;6.90;3.90;;;7.50;99.90;;;;;;5073751;28;20411;-39
2023/02/01 10:48:19;;;;;;;7.40;3.93;;;7.50;99.90;;;;;;5073917;28;20839;-38
2023/02/01 10:50:55;;;;;;;5.10;2.80;;;7.60;99.90;;;;;;5073498;28;20628;-37
2023/02/01 10:53:44;;;;;;;7.20;2.20;;;7.80;1.00;;;;;;5058331;28;20434;-39
2023/02/01 10:56:11;;;;;;;4.57;2.00;;;8.50;99.90;;;;;;5075945;28;20839;-41
2023/02/01 10:58:44;;;;;;;4.30;2.33;;;9.80;1.00;;;;;;5076807;28;20474;-40
2023/02/01 11:01:24;;;;;;;6.57;2.50;;;10.50;99.90;;;;;;5076304;28;20484;-43
2023/02/01 11:03:56;;;;;;;4.50;2.10;;;11.30;99.90;;;;;;5073615;28;20450;-37
2023/02/01 11:06:24;;;;;;;7.37;3.20;;;12.00;1.00;;;;;;5083396;28;20446;-37
2023/02/01 11:08:53;;;;;;;6.90;2.80;;;12.00;99.90;;;;;;5116101;28;20474;-37
2023/02/01 11:11:19;;;;;;;8.00;3.37;;;11.60;99.90;;;;;;5116194;27;20792;-38
2023/02/01 11:13:59;;;;;;;5.40;2.83;;;11.20;1.00;;;;;;5112812;28;20435;-37
2023/02/01 11:16:38;;;;;;;6.87;3.00;;;10.70;1.00;;;;;;5088168;28;20438;-37
2023/02/01 11:19:05;;;;;;;6.23;2.87;;;10.20;1.00;;;;;;5093620;28;20433;-37
2023/02/01 11:21:31;;;;;;;8.27;3.00;;;9.80;1.00;;;;;;5081325;28;20468;-37
2023/02/01 11:24:02;;;;;;;6.87;3.47;;;9.50;1.00;;;;;;5094329;28;20474;-40
2023/02/01 11:26:28;;;;;;;8.43;2.80;;;9.20;1.00;;;;;;5095586;28;20529;-37
2023/02/01 11:28:58;;;;;;;10.63;4.47;;;9.10;1.00;;;;;;5092878;28;20501;-37
2023/02/01 11:31:25;;;;;;;7.67;3.33;;;9.00;1.00;;;;;;5093249;28;20216;-37
2023/02/01 11:33:54;;;;;;;5.93;3.07;;;8.90;1.00;;;;;;5094561;28;20427;-38
2023/02/01 11:36:25;;;;;;;8.37;3.60;;;8.70;1.00;;;;;;5095853;28;20487;-38
2023/02/01 11:39:07;;;;;;;8.50;3.20;;;8.70;1.00;;;;;;5096482;28;20451;-38
2023/02/01 11:41:33;;;;;;;5.07;2.60;;;8.60;1.00;;;;;;5096402;28;20442;-38
2023/02/01 11:44:18;;;;;;;8.00;2.40;;;8.50;1.00;;;;;;5094102;28;20509;-37
2023/02/01 11:46:44;;;;;;;10.63;4.77;;;8.40;1.00;;;;;;5093502;28;20173;-38
2023/02/01 11:49:18;;;;;;;8.63;2.73;;;8.30;1.00;;;;;;5095303;28;20426;-37
2023/02/01 11:51:51;;;;;;;9.10;3.33;;;8.10;1.00;;;;;;5093942;28;20159;-38
2023/02/01 11:54:35;;;;;;;7.87;2.80;;;8.10;1.00;;;;;;5094535;28;20483;-37
2023/02/01 11:57:03;;;;;;;7.27;2.67;;;8.00;1.00;;;;;;5094728;28;20458;-38
2023/02/01 12:00:03;;;;;;;8.27;3.23;;;7.90;1.00;;;;;;5095619;28;20423;-38
2023/02/01 12:02:53;;;;;;;9.30;3.23;;;7.90;2.30;;;;;;5094277;28;20839;-37
2023/02/01 12:05:41;;;;;;;6.13;3.47;;;7.90;1.00;;;;;;5095969;28;20871;-39
2023/02/01 12:08:44;;;;;;;7.67;2.93;;;7.80;1.00;;;;;;5112981;28;20501;-37
2023/02/01 12:11:40;;;;;;;5.50;2.50;;;7.80;1.00;;;;;;5114432;28;20420;-38
2023/02/01 12:14:22;;;;;;;5.20;3.10;;;7.70;7.70;;;;;;5112455;28;20478;-38
2023/02/01 12:17:03;;;;;;;7.93;2.80;;;7.60;19.50;;;;;;5112335;28;20473;-37
2023/02/01 12:19:40;;;;;;;8.03;3.10;;;7.60;22.70;;;;;;5109805;28;20437;-37
2023/02/01 12:22:14;;;;;;;7.77;3.10;;;7.50;25.80;;;;;;5112205;28;20417;-37
2023/02/01 12:24:55;;;;;;;6.70;2.37;;;7.50;31.60;;;;;;5109819;28;20496;-38
2023/02/01 12:27:56;;;;;;;7.93;2.90;;;7.50;41.70;;;;;;5112365;28;20711;-38
2023/02/01 12:30:30;;;;;;;7.97;3.27;;;7.50;28.00;;;;;;5114347;28;20417;-37
2023/02/01 12:33:08;;;;;;;9.03;3.87;;;7.50;23.70;;;;;;5115328;28;20577;-37
2023/02/01 12:35:47;;;;;;;8.23;3.50;;;7.50;17.60;;;;;;5116775;28;20424;-37
2023/02/01 12:38:40;;;;;;;5.30;2.73;;;7.40;13.80;;;;;;5118746;28;20739;-39
2023/02/01 12:41:33;;;;;;;7.67;3.13;;;7.40;18.30;;;;;;5118957;28;20452;-37
2023/02/01 12:44:09;;;;;;;6.00;2.57;;;7.40;27.80;;;;;;5117188;28;20414;-38
2023/02/01 12:46:58;;;;;;;5.90;2.80;;;7.40;39.50;;;;;;5118635;28;20507;-37
2023/02/01 12:49:46;;;;;;;9.93;2.87;;;7.30;45.00;;;;;;5115545;28;20846;-37
2023/02/01 12:52:23;;;;;;;11.50;3.13;;;7.30;30.50;;;;;;5113824;28;20790;-37
2023/02/01 12:55:01;;;;;;;7.87;3.07;;;7.30;22.40;;;;;;5115264;28;20405;-37
2023/02/01 12:57:32;;;;;;;6.70;2.77;;;7.20;31.60;;;;;;5119419;28;20531;-37
2023/02/01 13:00:40;;;;;;;9.10;2.90;;;7.20;39.70;;;;;;5118292;28;20445;-37
2023/02/01 13:03:11;;;;;;;6.60;3.00;;;7.20;48.60;;;;;;5057893;28;20770;-37
2023/02/01 13:05:39;;;;;;;6.37;2.80;;;7.20;56.80;;;;;;5039153;28;20465;-38
2023/02/01 13:08:10;;;;;;;6.27;3.23;;;7.20;79.90;;;;;;5096153;28;20508;-37
2023/02/01 13:10:45;;;;;;;6.57;2.00;;;7.20;77.20;;;;;;5116002;28;20464;-37
2023/02/01 13:13:41;;;;;;;7.73;2.67;;;7.20;77.10;;;;;;5115897;28;20680;-37
2023/02/01 13:16:16;;;;;;;8.20;2.90;;;7.20;89.60;;;;;;5115609;28;20481;-37
2023/02/01 13:18:46;;;;;;;6.00;2.23;;;7.20;99.90;;;;;;5114706;28;20460;-37
2023/02/01 13:21:17;;;;;;;5.90;2.87;;;7.20;99.90;;;;;;5113982;28;20537;-36
2023/02/01 13:23:46;;;;;;;6.37;2.70;;;7.20;99.90;;;;;;5115628;28;20468;-36
2023/02/01 13:26:12;;;;;;;7.97;2.67;;;7.10;99.90;;;;;;5112733;28;20413;-36
2023/02/01 13:28:53;;;;;;;4.90;2.03;;;7.10;99.90;;;;;;5115764;28;20420;-36
2023/02/01 13:31:41;;;;;;;3.93;2.00;;;7.20;99.90;;;;;;5118187;28;20424;-38
2023/02/01 13:34:42;;;;;;;6.03;2.97;;;7.20;99.90;;;;;;5116460;28;20505;-38
2023/02/01 13:37:29;;;;;;;8.43;2.63;;;7.20;99.90;;;;;;5116667;28;20559;-36
2023/02/01 13:40:01;;;;;;;6.07;2.23;;;7.30;99.90;;;;;;5118206;28;20496;-38
2023/02/01 13:42:29;;;;;;;5.67;2.30;;;7.20;99.90;;;;;;5115398;28;20481;-38